createdAt,value
2018-01-18T00:00:40.578Z,1.80
2018-01-18T00:03:08.161Z,1.90
2018-01-18T00:05:35.721Z,1.97
2018-01-18T00:08:03.322Z,2.43
2018-01-18T00:10:30.890Z,2.33
2018-01-18T00:12:58.481Z,2.87
2018-01-18T00:15:26.041Z,2.00
2018-01-18T00:17:53.606Z,1.93
2018-01-18T00:20:21.199Z,2.03
2018-01-18T00:22:49.531Z,2.33
2018-01-18T00:25:17.120Z,3.60
2018-01-18T00:27:44.680Z,1.93
2018-01-18T00:30:12.270Z,2.57
2018-01-18T00:32:39.829Z,2.43
2018-01-18T00:35:07.422Z,3.70
2018-01-18T00:37:35.014Z,1.70
2018-01-18T00:40:02.603Z,1.83
2018-01-18T00:42:30.165Z,2.27
2018-01-18T00:44:57.757Z,2.20
2018-01-18T00:47:25.316Z,2.10
2018-01-18T00:49:52.910Z,1.87
2018-01-18T00:52:20.485Z,2.10
2018-01-18T00:54:48.846Z,2.93
2018-01-18T00:57:16.415Z,1.93
2018-01-18T00:59:44.763Z,2.43
2018-01-18T01:02:12.335Z,1.60
2018-01-18T01:04:39.917Z,2.30
2018-01-18T01:07:07.491Z,2.33
2018-01-18T01:09:35.073Z,2.70
2018-01-18T01:12:02.645Z,2.50
2018-01-18T01:14:30.237Z,2.40
2018-01-18T01:16:57.798Z,2.40
2018-01-18T01:19:25.388Z,1.40
2018-01-18T01:21:52.953Z,2.10
2018-01-18T01:24:20.537Z,2.00
2018-01-18T01:26:48.107Z,2.60
2018-01-18T01:29:15.709Z,2.00
2018-01-18T01:31:43.274Z,2.10
2018-01-18T01:34:10.840Z,2.43
2018-01-18T01:36:38.427Z,2.53
2018-01-18T01:39:05.993Z,2.53
2018-01-18T01:41:33.581Z,1.90
2018-01-18T01:44:01.157Z,1.63
2018-01-18T01:46:29.505Z,1.70
2018-01-18T01:48:57.070Z,2.20
2018-01-18T01:51:24.658Z,2.00
2018-01-18T01:53:52.217Z,2.20
2018-01-18T01:56:20.564Z,1.40
2018-01-18T01:58:48.135Z,4.00
2018-01-18T02:01:16.497Z,2.33
2018-01-18T02:03:44.064Z,2.10
2018-01-18T02:06:11.657Z,3.23
2018-01-18T02:08:39.220Z,2.17
2018-01-18T02:11:06.805Z,1.93
2018-01-18T02:13:34.373Z,2.63
2018-01-18T02:16:01.971Z,2.50
2018-01-18T02:18:29.538Z,2.30
2018-01-18T02:20:57.884Z,1.80
2018-01-18T02:23:25.451Z,3.50
2018-01-18T02:25:53.038Z,2.27
2018-01-18T02:28:21.374Z,2.10
2018-01-18T02:30:48.970Z,2.33
2018-01-18T02:33:17.302Z,2.40
2018-01-18T02:35:44.889Z,2.70
2018-01-18T02:38:12.461Z,2.43
2018-01-18T02:40:40.813Z,2.40
2018-01-18T02:43:08.377Z,3.10
2018-01-18T02:45:35.961Z,2.20
2018-01-18T02:48:03.530Z,3.23
2018-01-18T02:50:31.113Z,1.90
2018-01-18T02:52:58.677Z,2.27
2018-01-18T02:55:26.253Z,1.87
2018-01-18T03:00:27.777Z,1.90
2018-01-18T03:02:55.371Z,1.90
2018-01-18T03:05:22.995Z,2.30
2018-01-18T03:07:50.580Z,1.60
2018-01-18T03:10:18.157Z,1.37
2018-01-18T03:12:45.759Z,1.73
2018-01-18T03:15:13.328Z,1.20
2018-01-18T03:17:40.924Z,1.70
2018-01-18T03:20:08.490Z,1.93
2018-01-18T03:22:36.087Z,1.13
2018-01-18T03:25:04.421Z,1.87
2018-01-18T03:27:32.006Z,1.90
2018-01-18T03:29:59.573Z,1.37
2018-01-18T03:35:00.983Z,1.33
2018-01-18T03:37:28.569Z,1.90
2018-01-18T03:39:56.135Z,1.60
2018-01-18T03:42:23.713Z,1.43
2018-01-18T03:44:51.277Z,1.30
2018-01-18T03:47:19.634Z,1.17
2018-01-18T03:49:47.193Z,0.90
2018-01-18T03:52:14.777Z,1.57
2018-01-18T03:54:42.348Z,1.17
2018-01-18T03:57:10.697Z,1.77
2018-01-18T03:59:38.257Z,0.70
2018-01-18T04:02:05.844Z,1.40
2018-01-18T04:04:33.405Z,0.97
2018-01-18T04:07:01.743Z,1.30
2018-01-18T04:09:29.324Z,1.17
2018-01-18T04:11:57.649Z,0.90
2018-01-18T04:14:25.238Z,1.03
2018-01-18T04:16:52.797Z,1.00
2018-01-18T04:19:20.393Z,0.90
2018-01-18T04:21:47.949Z,0.83
2018-01-18T04:24:15.543Z,1.00
2018-01-18T04:26:43.106Z,0.77
2018-01-18T04:29:10.689Z,0.80
2018-01-18T04:31:38.248Z,0.90
2018-01-18T04:34:05.837Z,1.20
2018-01-18T04:36:33.396Z,0.70
2018-01-18T04:39:01.034Z,0.80
2018-01-18T04:41:28.588Z,0.70
2018-01-18T04:43:56.170Z,0.67
2018-01-18T04:46:24.499Z,0.80
2018-01-18T04:48:52.086Z,0.50
2018-01-18T04:51:19.645Z,0.60
2018-01-18T04:53:47.234Z,1.23
2018-01-18T04:56:15.557Z,0.57
2018-01-18T04:58:43.141Z,0.90
2018-01-18T05:01:10.717Z,0.50
2018-01-18T05:03:38.318Z,0.70
2018-01-18T05:06:05.882Z,0.60
2018-01-18T05:08:34.218Z,1.00
2018-01-18T05:11:02.553Z,0.60
2018-01-18T05:13:30.149Z,0.50
2018-01-18T05:15:58.482Z,0.50
2018-01-18T05:18:26.072Z,0.60
2018-01-18T05:20:53.639Z,0.70
2018-01-18T05:23:21.209Z,0.40
2018-01-18T05:25:48.798Z,0.50
2018-01-18T05:28:16.361Z,0.70
2018-01-18T05:30:43.949Z,0.40
2018-01-18T05:33:11.509Z,0.50
2018-01-18T05:35:39.097Z,0.40
2018-01-18T05:38:07.421Z,0.50
2018-01-18T05:40:35.006Z,0.43
2018-01-18T05:43:02.564Z,2.23
2018-01-18T05:45:30.146Z,0.40
2018-01-18T05:47:57.718Z,0.60
2018-01-18T05:50:26.070Z,0.40
2018-01-18T05:52:53.633Z,0.60
2018-01-18T05:55:21.216Z,0.50
2018-01-18T05:57:49.559Z,0.60
2018-01-18T06:00:17.142Z,0.50
2018-01-18T06:02:45.473Z,0.73
2018-01-18T06:05:13.065Z,0.50
2018-01-18T06:07:40.658Z,0.50
2018-01-18T06:10:08.241Z,0.40
2018-01-18T06:12:35.821Z,0.63
2018-01-18T06:15:03.413Z,0.60
2018-01-18T06:17:31.732Z,0.40
2018-01-18T06:19:59.314Z,0.40
2018-01-18T06:22:26.873Z,0.40
2018-01-18T06:24:55.221Z,0.30
2018-01-18T06:27:22.796Z,0.40
2018-01-18T06:29:50.377Z,0.40
2018-01-18T06:32:17.946Z,0.40
2018-01-18T06:34:45.526Z,0.40
2018-01-18T06:37:13.859Z,1.80
2018-01-18T06:39:41.421Z,0.40
2018-01-18T06:42:09.010Z,0.47
2018-01-18T06:44:37.351Z,0.50
2018-01-18T06:47:04.948Z,0.50
2018-01-18T06:49:33.285Z,0.50
2018-01-18T06:52:00.869Z,0.40
2018-01-18T06:54:28.437Z,0.50
2018-01-18T06:56:56.025Z,0.50
2018-01-18T06:59:23.585Z,0.40
2018-01-18T07:01:51.174Z,0.40
2018-01-18T07:04:18.736Z,0.40
2018-01-18T07:06:46.330Z,0.60
2018-01-18T07:09:13.892Z,0.40
2018-01-18T07:11:41.472Z,0.50
2018-01-18T07:14:09.032Z,0.40
2018-01-18T07:16:36.622Z,0.40
2018-01-18T07:19:04.180Z,0.40
2018-01-18T07:21:31.761Z,0.40
2018-01-18T07:23:59.322Z,0.40
2018-01-18T07:26:26.920Z,0.40
2018-01-18T07:28:55.245Z,0.40
2018-01-18T07:31:22.830Z,0.40
2018-01-18T07:33:50.394Z,0.40
2018-01-18T07:36:17.979Z,0.50
2018-01-18T07:38:46.310Z,0.40
2018-01-18T07:41:13.898Z,0.40
2018-01-18T07:43:42.231Z,0.43
2018-01-18T07:46:09.822Z,0.50
2018-01-18T07:48:37.383Z,0.40
2018-01-18T07:51:05.226Z,0.43
2018-01-18T07:53:32.789Z,0.63
2018-01-18T07:56:00.354Z,0.70
2018-01-18T07:58:27.945Z,0.40
2018-01-18T08:00:56.269Z,0.50
2018-01-18T08:03:29.405Z,0.40
2018-01-18T08:05:56.969Z,0.40
2018-01-18T08:08:25.329Z,0.60
2018-01-18T08:10:52.904Z,0.50
2018-01-18T08:13:21.260Z,0.60
2018-01-18T08:15:48.817Z,0.50
2018-01-18T08:18:16.401Z,0.50
2018-01-18T08:20:43.969Z,0.60
2018-01-18T08:23:11.550Z,0.50
2018-01-18T08:25:39.113Z,0.80
2018-01-18T08:28:06.706Z,0.40
2018-01-18T08:30:34.265Z,0.50
2018-01-18T08:33:01.860Z,0.50
2018-01-18T08:35:30.190Z,0.40
2018-01-18T08:37:57.778Z,0.60
2018-01-18T08:40:25.392Z,0.50
2018-01-18T08:42:52.976Z,0.40
2018-01-18T08:45:20.538Z,0.50
2018-01-18T08:47:48.116Z,0.50
2018-01-18T08:50:16.450Z,0.40
2018-01-18T08:52:44.040Z,0.87
2018-01-18T08:55:11.609Z,0.50
2018-01-18T08:57:39.204Z,0.50
2018-01-18T09:00:06.763Z,0.40
2018-01-18T09:02:34.421Z,0.47
2018-01-18T09:05:02.003Z,0.50
2018-01-18T09:07:29.600Z,0.50
2018-01-18T09:09:57.169Z,0.50
2018-01-18T09:12:25.526Z,0.47
2018-01-18T09:14:53.117Z,0.60
2018-01-18T09:17:21.465Z,0.50
2018-01-18T09:19:49.054Z,0.50
2018-01-18T09:22:17.380Z,0.50
2018-01-18T09:24:44.969Z,0.40
2018-01-18T09:27:12.538Z,0.50
2018-01-18T09:29:40.128Z,0.47
2018-01-18T09:32:07.685Z,0.50
2018-01-18T09:34:35.696Z,0.70
2018-01-18T09:37:03.302Z,0.50
2018-01-18T09:39:30.901Z,0.40
2018-01-18T09:41:58.469Z,0.60
2018-01-18T09:44:26.053Z,0.40
2018-01-18T09:46:53.614Z,0.40
2018-01-18T09:49:21.194Z,0.60
2018-01-18T09:51:49.520Z,0.50
2018-01-18T09:54:17.105Z,0.60
2018-01-18T09:56:44.674Z,0.50
2018-01-18T09:59:12.260Z,0.40
2018-01-18T10:01:39.821Z,0.40
2018-01-18T10:04:07.409Z,0.40
2018-01-18T10:06:34.972Z,0.80
2018-01-18T10:09:02.576Z,0.40
2018-01-18T10:11:30.166Z,0.40
2018-01-18T10:13:57.753Z,0.50
2018-01-18T10:16:25.315Z,0.50
2018-01-18T10:18:52.907Z,0.60
2018-01-18T10:21:21.239Z,0.60
2018-01-18T10:23:48.820Z,0.60
2018-01-18T10:26:16.390Z,0.83
2018-01-18T10:28:43.987Z,0.80
2018-01-18T10:31:11.545Z,0.47
2018-01-18T10:33:39.119Z,0.50
2018-01-18T10:36:06.709Z,0.83
2018-01-18T10:38:34.290Z,0.60
2018-01-18T10:41:01.880Z,0.83
2018-01-18T10:43:29.453Z,0.60
2018-01-18T10:45:57.050Z,0.50
2018-01-18T10:48:24.613Z,0.50
2018-01-18T10:50:52.196Z,0.53
2018-01-18T10:53:20.536Z,0.50
2018-01-18T10:55:48.171Z,1.13
2018-01-18T10:58:15.713Z,0.60
2018-01-18T11:00:43.298Z,0.50
2018-01-18T11:03:10.861Z,0.90
2018-01-18T11:05:38.453Z,0.50
2018-01-18T11:08:06.021Z,0.67
2018-01-18T11:10:33.646Z,0.43
2018-01-18T11:13:01.209Z,0.50
2018-01-18T11:15:28.805Z,0.50
2018-01-18T11:17:56.366Z,0.50
2018-01-18T11:20:24.721Z,0.40
2018-01-18T11:22:52.294Z,0.60
2018-01-18T11:25:20.661Z,0.50
2018-01-18T11:27:48.373Z,0.50
2018-01-18T11:30:16.011Z,0.53
2018-01-18T11:32:43.581Z,0.50
2018-01-18T11:35:11.172Z,0.57
2018-01-18T11:37:38.729Z,0.70
2018-01-18T11:40:06.322Z,0.50
2018-01-18T11:42:33.896Z,0.60
2018-01-18T11:45:01.474Z,0.60
2018-01-18T11:47:29.057Z,0.50
2018-01-18T11:49:56.627Z,0.93
2018-01-18T11:52:24.216Z,0.60
2018-01-18T11:54:51.785Z,0.60
2018-01-18T11:57:19.381Z,0.90
2018-01-18T11:59:47.738Z,0.60
2018-01-18T12:02:15.340Z,0.70
2018-01-18T12:04:42.913Z,0.77
2018-01-18T12:07:11.073Z,0.50
2018-01-18T12:09:38.637Z,1.00
2018-01-18T12:12:06.230Z,0.80
2018-01-18T12:14:34.566Z,0.70
2018-01-18T12:17:02.228Z,0.57
2018-01-18T12:19:29.796Z,0.47
2018-01-18T12:21:57.381Z,0.50
2018-01-18T12:24:25.733Z,0.70
2018-01-18T12:26:53.325Z,0.50
2018-01-18T12:29:21.675Z,0.50
2018-01-18T12:31:49.266Z,0.50
2018-01-18T12:34:17.619Z,0.60
2018-01-18T12:36:45.215Z,0.70
2018-01-18T12:39:12.793Z,0.50
2018-01-18T12:41:42.788Z,0.50
2018-01-18T12:44:11.121Z,0.50
2018-01-18T12:46:38.731Z,0.80
2018-01-18T12:49:06.353Z,0.70
2018-01-18T12:51:33.978Z,0.57
2018-01-18T12:54:01.552Z,0.80
2018-01-18T12:56:29.144Z,0.70
2018-01-18T12:58:57.487Z,0.60
2018-01-18T13:01:25.057Z,0.50
2018-01-18T13:03:52.650Z,0.70
2018-01-18T13:06:20.980Z,0.60
2018-01-18T13:08:48.576Z,0.50
2018-01-18T13:11:16.913Z,0.60
2018-01-18T13:13:44.512Z,0.60
2018-01-18T13:16:12.082Z,0.80
2018-01-18T13:18:39.674Z,0.47
2018-01-18T13:21:07.241Z,0.50
2018-01-18T13:23:34.833Z,0.60
2018-01-18T13:26:02.398Z,0.60
2018-01-18T13:28:29.994Z,0.77
2018-01-18T13:30:57.561Z,0.50
2018-01-18T13:33:25.161Z,0.77
2018-01-18T13:35:52.732Z,0.70
2018-01-18T13:38:20.321Z,0.70
2018-01-18T13:40:48.651Z,0.97
2018-01-18T13:43:16.241Z,0.40
2018-01-18T13:45:44.581Z,0.50
2018-01-18T13:48:12.178Z,0.80
2018-01-18T13:50:40.513Z,0.63
2018-01-18T13:53:08.097Z,0.63
2018-01-18T13:55:35.670Z,0.60
2018-01-18T13:58:03.330Z,0.60
2018-01-18T14:00:30.899Z,0.70
2018-01-18T14:02:59.262Z,0.60
2018-01-18T14:05:26.829Z,0.70
2018-01-18T14:07:55.185Z,0.60
2018-01-18T14:10:22.759Z,1.40
2018-01-18T14:12:50.362Z,0.97
2018-01-18T14:15:18.697Z,0.90
2018-01-18T14:17:46.257Z,1.00
2018-01-18T14:20:14.609Z,0.50
2018-01-18T14:22:42.178Z,1.43
2018-01-18T14:25:09.765Z,0.70
2018-01-18T14:27:38.097Z,0.97
2018-01-18T14:30:06.451Z,1.87
2018-01-18T14:32:34.939Z,1.30
2018-01-18T14:35:02.526Z,0.90
2018-01-18T14:37:30.119Z,1.23
2018-01-18T14:39:58.466Z,1.17
2018-01-18T14:42:26.031Z,1.00
2018-01-18T14:44:53.614Z,0.80
2018-01-18T14:47:21.176Z,0.63
2018-01-18T14:49:49.538Z,1.37
2018-01-18T14:52:17.106Z,0.90
2018-01-18T14:54:45.596Z,0.77
2018-01-18T14:57:13.168Z,1.20
2018-01-18T14:59:40.764Z,1.03
2018-01-18T15:02:08.333Z,0.83
2018-01-18T15:04:35.921Z,1.77
2018-01-18T15:07:04.261Z,1.73
2018-01-18T15:09:31.839Z,0.90
2018-01-18T15:11:59.402Z,1.03
2018-01-18T15:14:27.017Z,0.97
2018-01-18T15:16:54.585Z,1.00
2018-01-18T15:19:22.169Z,0.90
2018-01-18T15:21:49.803Z,0.70
2018-01-18T15:24:17.365Z,0.80
2018-01-18T15:26:44.936Z,1.30
2018-01-18T15:29:12.515Z,1.30
2018-01-18T15:31:40.105Z,1.23
2018-01-18T15:34:07.688Z,1.47
2018-01-18T15:36:35.270Z,1.70
2018-01-18T15:39:02.841Z,1.20
2018-01-18T15:41:30.462Z,5.77
2018-01-18T15:43:58.022Z,1.40
2018-01-18T15:46:25.683Z,1.10
2018-01-18T15:48:53.258Z,1.57
2018-01-18T15:51:20.862Z,1.50
2018-01-18T15:53:49.210Z,1.40
2018-01-18T15:56:16.800Z,1.47
2018-01-18T15:58:45.173Z,1.80
2018-01-18T16:01:12.752Z,2.50
2018-01-18T16:03:40.316Z,2.00
2018-01-18T16:06:07.916Z,1.50
2018-01-18T16:08:35.493Z,1.67
2018-01-18T16:11:03.086Z,2.40
2018-01-18T16:13:30.651Z,2.80
2018-01-18T16:15:58.241Z,2.13
2018-01-18T16:18:25.809Z,2.10
2018-01-18T16:20:53.407Z,2.40
2018-01-18T16:23:20.995Z,1.30
2018-01-18T16:25:48.645Z,1.20
2018-01-18T16:28:16.212Z,2.50
2018-01-18T16:30:43.839Z,1.97
2018-01-18T16:33:12.707Z,1.83
2018-01-18T16:35:41.100Z,1.40
2018-01-18T16:38:09.360Z,1.40
2018-01-18T16:40:37.134Z,1.40
2018-01-18T16:43:04.781Z,3.17
2018-01-18T16:45:32.385Z,2.10
2018-01-18T16:48:00.781Z,2.13
2018-01-18T16:50:28.341Z,1.50
2018-01-18T16:52:55.933Z,2.17
2018-01-18T16:55:23.501Z,1.97
2018-01-18T16:57:51.086Z,2.40
2018-01-18T17:00:19.421Z,2.33
2018-01-18T17:02:47.102Z,3.17
2018-01-18T17:05:14.805Z,1.90
2018-01-18T17:07:42.642Z,1.67
2018-01-18T17:10:10.236Z,2.90
2018-01-18T17:12:37.841Z,1.73
2018-01-18T17:15:05.430Z,2.23
2018-01-18T17:17:33.785Z,2.53
2018-01-18T17:20:03.400Z,1.90
2018-01-18T17:22:32.489Z,4.57
2018-01-18T17:25:00.377Z,3.23
2018-01-18T17:27:27.975Z,2.60
2018-01-18T17:29:55.548Z,4.03
2018-01-18T17:32:23.137Z,3.00
2018-01-18T17:34:50.705Z,3.53
2018-01-18T17:37:19.065Z,3.53
2018-01-18T17:39:46.637Z,2.63
2018-01-18T17:42:14.221Z,3.03
2018-01-18T17:44:42.565Z,7.07
2018-01-18T17:47:10.149Z,3.47
2018-01-18T17:49:38.506Z,3.10
2018-01-18T17:52:06.094Z,4.00
2018-01-18T17:54:34.427Z,5.00
2018-01-18T17:57:02.018Z,3.20
2018-01-18T17:59:30.539Z,3.20
2018-01-18T18:01:58.129Z,2.70
2018-01-18T18:04:25.702Z,2.80
2018-01-18T18:06:53.277Z,2.20
2018-01-18T18:09:20.873Z,3.27
2018-01-18T18:11:48.437Z,2.60
2018-01-18T18:14:16.026Z,3.00
2018-01-18T18:16:43.589Z,2.53
2018-01-18T18:19:11.177Z,3.67
2018-01-18T18:21:38.817Z,2.87
2018-01-18T18:24:06.405Z,2.67
2018-01-18T18:26:33.975Z,2.80
2018-01-18T18:29:01.560Z,2.30
2018-01-18T18:31:29.127Z,3.10
2018-01-18T18:33:56.720Z,2.53
2018-01-18T18:36:25.061Z,2.93
2018-01-18T18:38:52.665Z,2.83
2018-01-18T18:41:20.997Z,2.10
2018-01-18T18:43:48.589Z,5.10
2018-01-18T18:46:16.472Z,4.07
2018-01-18T18:48:44.101Z,2.67
2018-01-18T18:51:12.097Z,7.13
2018-01-18T18:53:39.778Z,4.53
2018-01-18T18:56:07.898Z,4.10
2018-01-18T18:58:35.553Z,3.50
2018-01-18T19:01:03.125Z,2.67
2018-01-18T19:03:30.719Z,3.17
2018-01-18T19:05:59.087Z,3.30
2018-01-18T19:08:27.445Z,3.50
2018-01-18T19:10:55.054Z,4.23
2018-01-18T19:13:22.848Z,3.57
2018-01-18T19:15:50.423Z,2.63
2018-01-18T19:18:18.038Z,2.60
2018-01-18T19:20:45.633Z,2.90
2018-01-18T19:23:13.244Z,4.30
2018-01-18T19:25:40.830Z,3.23
2018-01-18T19:28:08.450Z,2.20
2018-01-18T19:30:36.803Z,2.40
2018-01-18T19:33:04.406Z,5.63
2018-01-18T19:35:31.998Z,2.80
2018-01-18T19:37:59.595Z,2.57
2018-01-18T19:40:28.009Z,2.33
2018-01-18T19:42:55.625Z,2.40
2018-01-18T19:45:23.218Z,2.13
2018-01-18T19:47:50.842Z,2.80
2018-01-18T19:50:18.488Z,2.63
2018-01-18T19:52:46.110Z,2.40
2018-01-18T19:55:13.738Z,2.60
2018-01-18T19:57:42.137Z,2.50
2018-01-18T20:00:09.726Z,2.70
2018-01-18T20:02:37.341Z,2.90
2018-01-18T20:05:04.925Z,2.93
2018-01-18T20:07:32.541Z,3.10
2018-01-18T20:10:00.173Z,3.90
2018-01-18T20:12:27.746Z,6.03
2018-01-18T20:14:55.339Z,3.27
2018-01-18T20:17:23.676Z,3.40
2018-01-18T20:19:51.647Z,4.33
2018-01-18T20:22:19.438Z,3.00
2018-01-18T20:24:47.856Z,2.47
2018-01-18T20:27:15.496Z,2.03
2018-01-18T20:29:43.794Z,3.07
2018-01-18T20:32:12.347Z,2.70
2018-01-18T20:34:39.953Z,2.73
2018-01-18T20:37:07.531Z,2.80
2018-01-18T20:39:35.662Z,1.93
2018-01-18T20:42:03.307Z,2.90
2018-01-18T20:44:30.922Z,2.30
2018-01-18T20:46:58.700Z,2.80
2018-01-18T20:49:27.161Z,2.20
2018-01-18T20:51:54.757Z,2.20
2018-01-18T20:54:23.222Z,2.03
2018-01-18T20:56:50.864Z,2.87
2018-01-18T20:59:18.471Z,2.70
2018-01-18T21:01:46.131Z,2.10
2018-01-18T21:04:13.698Z,3.07
2018-01-18T21:06:41.293Z,2.27
2018-01-18T21:09:08.899Z,1.80
2018-01-18T21:11:37.295Z,1.63
2018-01-18T21:14:04.909Z,2.03
2018-01-18T21:16:32.553Z,1.80
2018-01-18T21:19:00.166Z,1.60
2018-01-18T21:21:28.555Z,2.53
2018-01-18T21:23:56.342Z,2.13
2018-01-18T21:26:24.018Z,1.97
2018-01-18T21:28:51.647Z,1.53
2018-01-18T21:31:19.228Z,2.10
2018-01-18T21:33:46.831Z,2.20
2018-01-18T21:36:15.231Z,2.90
2018-01-18T21:38:42.843Z,2.63
2018-01-18T21:41:10.429Z,4.30
2018-01-18T21:43:38.761Z,2.37
2018-01-18T21:46:06.347Z,2.80
2018-01-18T21:48:33.965Z,3.47
2018-01-18T21:51:01.552Z,2.00
2018-01-18T21:53:29.183Z,2.23
2018-01-18T21:55:56.749Z,2.50
2018-01-18T21:58:24.379Z,2.50
2018-01-18T22:00:52.755Z,1.97
2018-01-18T22:03:21.109Z,2.20
2018-01-18T22:05:48.715Z,2.10
2018-01-18T22:08:16.343Z,2.37
2018-01-18T22:10:44.714Z,2.53
2018-01-18T22:13:13.065Z,1.83
2018-01-18T22:15:40.671Z,2.57
2018-01-18T22:18:08.265Z,2.03
2018-01-18T22:20:35.828Z,1.73
2018-01-18T22:23:03.410Z,3.00
2018-01-18T22:25:30.968Z,2.40
2018-01-18T22:27:58.561Z,2.17
2018-01-18T22:30:26.127Z,2.60
2018-01-18T22:32:53.717Z,3.20
2018-01-18T22:35:21.322Z,3.20
2018-01-18T22:37:49.681Z,2.33
2018-01-18T22:40:17.295Z,2.67
2018-01-18T22:42:44.881Z,2.10
2018-01-18T22:45:12.453Z,2.80
2018-01-18T22:47:40.036Z,2.70
2018-01-18T22:50:07.605Z,2.67
2018-01-18T22:52:35.202Z,2.50
2018-01-18T22:55:02.766Z,2.87
2018-01-18T22:57:30.343Z,2.00
2018-01-18T22:59:57.909Z,2.30
2018-01-18T23:02:25.497Z,3.33
2018-01-18T23:04:53.064Z,3.20
2018-01-18T23:07:21.426Z,2.20
2018-01-18T23:09:48.993Z,2.30
2018-01-18T23:12:17.325Z,2.70
2018-01-18T23:14:44.912Z,2.77
2018-01-18T23:17:12.485Z,2.53
2018-01-18T23:19:40.073Z,2.97
2018-01-18T23:22:07.645Z,3.30
2018-01-18T23:24:35.228Z,2.23
2018-01-18T23:27:02.790Z,2.40
2018-01-18T23:29:30.380Z,2.70
2018-01-18T23:31:57.952Z,1.90
2018-01-18T23:34:26.310Z,2.03
2018-01-18T23:36:53.888Z,3.17
2018-01-18T23:39:21.476Z,2.40
2018-01-18T23:41:49.176Z,2.60
2018-01-18T23:44:16.766Z,2.87
2018-01-18T23:46:45.097Z,2.90
2018-01-18T23:49:12.685Z,2.10
2018-01-18T23:51:40.250Z,2.40
2018-01-18T23:54:08.610Z,2.50
2018-01-18T23:56:36.173Z,3.40
2018-01-18T23:59:03.800Z,2.90
